Station History

Weather Underground - logo

Station Historical Data
Daily Summary for Nil La, TWC- Units:  Metric    English   Both
« Previous Day
Next Day »
Daily Weekly Monthly Yearly Custom
  High: Low: Average:
Temperature: 23.2 °C 16.1 °C 19.4 °C
Dew Point: 15.4 °C 12.4 °C 13.7 °C
Humidity: 83 % 56 % 71 %
Wind Speed: 3.7 km/h 0 km/h 0.2 km/h
Wind Gust: 0.6 km/h - -
Wind:- - ESE
Pressure: 1013.1 hPa 1011.1 hPa -
Precipitation: 0 mm    
Historical Graphs
 
 
Tabular Data for Nil La, TWC-
Time Temperature Dew Point Pressure Wind Wind Speed Wind Gust Humidity Rainfall Rate (Hourly)
00:04 23.2 °C 15.3 °C 1011.1 hPa Calm     61 % 0 mm
00:09 23.1 °C 15.2 °C 1011.1 hPa Calm     61 % 0 mm
00:14 22.9 °C 15 °C 1011.1 hPa Calm     61 % 0 mm
00:19 22.8 °C 14.9 °C 1011.1 hPa Calm     61 % 0 mm
00:24 22.8 °C 15.4 °C 1011.1 hPa Calm     63 % 0 mm
00:29 22.7 °C 15.3 °C 1011.1 hPa Calm     63 % 0 mm
00:34 22.6 °C 14.9 °C 1011.1 hPa Calm     62 % 0 mm
00:39 22.6 °C 14.7 °C 1011.1 hPa Calm     61 % 0 mm
00:44 22.6 °C 15.4 °C 1011.1 hPa Calm     64 % 0 mm
00:49 22.6 °C 14.9 °C 1011.1 hPa Calm     62 % 0 mm
00:54 22.6 °C 14.7 °C 1011.1 hPa Calm     61 % 0 mm
00:59 22.7 °C 14.1 °C 1011.1 hPa Calm     58 % 0 mm
01:04 22.8 °C 13.9 °C 1011.1 hPa Calm     57 % 0 mm
01:09 22.8 °C 13.6 °C 1011.1 hPa Calm     56 % 0 mm
01:14 22.9 °C 14.5 °C 1011.1 hPa Calm     59 % 0 mm
01:19 23 °C 13.7 °C 1011.1 hPa Calm     56 % 0 mm
01:24 22.9 °C 13.7 °C 1011.4 hPa Calm     56 % 0 mm
01:29 22.7 °C 13.4 °C 1011.1 hPa Calm     56 % 0 mm
01:34 22.4 °C 14.2 °C 1011.1 hPa Calm     60 % 0 mm
01:39 22.1 °C 14.5 °C 1011.1 hPa Calm     62 % 0 mm
01:44 21.9 °C 14.5 °C 1011.1 hPa Calm     63 % 0 mm
01:49 21.6 °C 14.3 °C 1011.1 hPa Calm     63 % 0 mm
01:54 21.3 °C 14.2 °C 1011.1 hPa Calm     64 % 0 mm
01:59 21.2 °C 14.3 °C 1011.1 hPa Calm     65 % 0 mm
02:04 20.9 °C 14.1 °C 1011.1 hPa Calm     65 % 0 mm
02:09 20.8 °C 14.2 °C 1011.1 hPa Calm     66 % 0 mm
02:14 20.7 °C 13.6 °C 1011.1 hPa Calm     64 % 0 mm
02:19 20.7 °C 13.8 °C 1011.1 hPa Calm     65 % 0 mm
02:24 20.7 °C 13.9 °C 1011.1 hPa Calm     65 % 0 mm
02:29 20.8 °C 13.3 °C 1011.1 hPa Calm     62 % 0 mm
02:34 20.8 °C 13.3 °C 1011.1 hPa Calm     62 % 0 mm
02:39 20.8 °C 13 °C 1011.1 hPa Calm     61 % 0 mm
02:44 20.7 °C 13.1 °C 1011.1 hPa Calm     62 % 0 mm
02:49 20.6 °C 12.8 °C 1011.1 hPa Calm     61 % 0 mm
02:54 20.7 °C 12.4 °C 1011.1 hPa Calm     59 % 0 mm
02:59 20.6 °C 13.1 °C 1011.1 hPa Calm     62 % 0 mm
03:04 20.5 °C 13.2 °C 1011.1 hPa Calm     63 % 0 mm
03:09 20.3 °C 13.1 °C 1011.1 hPa Calm     63 % 0 mm
03:14 20.1 °C 13.3 °C 1011.1 hPa Calm     65 % 0 mm
03:19 19.8 °C 12.8 °C 1011.1 hPa Calm     64 % 0 mm
03:24 19.6 °C 13.3 °C 1011.1 hPa Calm     67 % 0 mm
03:29 19.4 °C 13.3 °C 1011.1 hPa Calm     68 % 0 mm
03:34 19.2 °C 13.1 °C 1011.1 hPa Calm     68 % 0 mm
03:39 19 °C 13.2 °C 1011.1 hPa Calm     69 % 0 mm
03:44 18.7 °C 13.1 °C 1011.4 hPa Calm     70 % 0 mm
03:49 18.4 °C 13.3 °C 1011.1 hPa Calm     72 % 0 mm
03:54 18.3 °C 13.6 °C 1011.4 hPa Calm     74 % 0 mm
03:59 18.1 °C 13.8 °C 1011.4 hPa Calm     76 % 0 mm
04:04 17.9 °C 14.1 °C 1011.4 hPa Calm     78 % 0 mm
04:09 17.7 °C 14.2 °C 1011.4 hPa East 1.9 km/h   80 % 0 mm
04:14 17.5 °C 14.2 °C 1011.4 hPa Calm     81 % 0 mm
04:19 17.3 °C 14.1 °C 1011.4 hPa Calm     81 % 0 mm
04:24 17.2 °C 13.9 °C 1011.7 hPa Calm     81 % 0 mm
04:29 17 °C 13.9 °C 1011.7 hPa Calm     82 % 0 mm
04:34 16.9 °C 13.8 °C 1011.7 hPa Calm     82 % 0 mm
04:39 16.8 °C 13.7 °C 1011.4 hPa Calm     82 % 0 mm
04:44 16.7 °C 13.6 °C 1011.7 hPa Calm     82 % 0 mm
04:49 16.7 °C 13.8 °C 1011.7 hPa Calm     83 % 0 mm
04:54 16.6 °C 13.4 °C 1011.7 hPa Calm     82 % 0 mm
04:59 16.5 °C 13.4 °C 1011.7 hPa Calm     82 % 0 mm
05:04 16.4 °C 13.3 °C 1011.7 hPa Calm     82 % 0 mm
05:09 16.4 °C 13.3 °C 1011.7 hPa Calm     82 % 0 mm
05:14 16.5 °C 13.4 °C 1011.7 hPa Calm     82 % 0 mm
05:19 16.4 °C 13.3 °C 1011.7 hPa East 3.7 km/h 0.6 km/h 82 % 0 mm
05:24 16.4 °C 13.3 °C 1012.1 hPa Calm     82 % 0 mm
05:29 16.3 °C 13.2 °C 1012.1 hPa Calm     82 % 0 mm
05:34 16.2 °C 13.2 °C 1012.1 hPa Calm     82 % 0 mm
05:39 16.1 °C 13.1 °C 1012.1 hPa Calm     82 % 0 mm
05:44 16.1 °C 13.1 °C 1012.1 hPa Calm     82 % 0 mm
05:49 16.1 °C 12.8 °C 1012.1 hPa Calm     81 % 0 mm
05:54 16.2 °C 12.9 °C 1012.4 hPa Calm     81 % 0 mm
05:59 16.2 °C 12.7 °C 1012.4 hPa Calm     80 % 0 mm
06:04 16.2 °C 12.8 °C 1012.4 hPa Calm     80 % 0 mm
06:09 16.3 °C 12.8 °C 1012.8 hPa Calm     80 % 0 mm
06:14 16.4 °C 12.9 °C 1012.8 hPa Calm     80 % 0 mm
06:19 16.4 °C 13 °C 1012.8 hPa Calm     80 % 0 mm
06:24 16.5 °C 13.2 °C 1012.8 hPa Calm     81 % 0 mm
06:29 16.6 °C 13.3 °C 1012.8 hPa East 1.9 km/h 0.2 km/h 81 % 0 mm
06:35 16.8 °C 13.3 °C 1012.8 hPa Calm     80 % 0 mm
06:39 17.2 °C 13.5 °C 1013.1 hPa East 1.9 km/h   79 % 0 mm
06:44 17.8 °C 13.7 °C 1013.1 hPa Calm   0.2 km/h 77 % 0 mm
06:49 18.4 °C 13.9 °C 1013.1 hPa South 1.9 km/h   75 % 0 mm
06:54 18.8 °C 13.9 °C 1013.1 hPa SE 3.7 km/h   73 % 0 mm
06:59 19.1 °C 14.1 °C 1013.1 hPa ESE 1.9 km/h   73 % 0 mm
07:04 19.3 °C 13.9 °C 1013.1 hPa SE 3.2 km/h 0.2 km/h 71 % 0 mm
Park Place, Exeter, Tulare County, California, USA
Compliments of Weather Underground - 1.75 mb